createdAt,value
2019-03-12T00:00:25.790Z,40.30
2019-03-12T00:02:51.944Z,40.30
2019-03-12T00:05:18.099Z,40.20
2019-03-12T00:07:44.273Z,40.30
2019-03-12T00:10:10.423Z,40.30
2019-03-12T00:12:36.570Z,40.30
2019-03-12T00:15:02.720Z,40.90
2019-03-12T00:17:28.874Z,40.30
2019-03-12T00:19:55.049Z,40.20
2019-03-12T00:22:21.216Z,40.90
2019-03-12T00:24:47.366Z,40.30
2019-03-12T00:27:13.528Z,40.20
2019-03-12T00:29:39.678Z,40.30
2019-03-12T00:32:05.857Z,40.30
2019-03-12T00:34:32.004Z,40.20
2019-03-12T00:36:58.175Z,40.20
2019-03-12T00:39:24.317Z,40.20
2019-03-12T00:41:50.473Z,40.10
2019-03-12T00:44:16.627Z,40.10
2019-03-12T00:46:42.776Z,40.10
2019-03-12T00:49:09.689Z,40.00
2019-03-12T00:51:35.845Z,40.00
2019-03-12T00:54:01.994Z,39.90
2019-03-12T00:56:28.149Z,40.10
2019-03-12T00:58:54.301Z,40.10
2019-03-12T01:01:20.456Z,40.10
2019-03-12T01:03:46.614Z,40.00
2019-03-12T01:06:12.764Z,39.90
2019-03-12T01:08:38.918Z,40.70
2019-03-12T01:11:05.073Z,39.90
2019-03-12T01:13:31.220Z,39.90
2019-03-12T01:15:57.372Z,39.90
2019-03-12T01:18:23.545Z,39.80
2019-03-12T01:20:49.695Z,39.80
2019-03-12T01:23:15.878Z,39.90
2019-03-12T01:25:42.033Z,40.00
2019-03-12T01:28:08.220Z,39.90
2019-03-12T01:30:34.378Z,39.80
2019-03-12T01:33:00.525Z,39.80
2019-03-12T01:35:26.684Z,39.80
2019-03-12T01:37:52.844Z,39.80
2019-03-12T01:40:18.998Z,39.70
2019-03-12T01:42:45.152Z,39.70
2019-03-12T01:45:11.309Z,39.60
2019-03-12T01:47:37.448Z,39.60
2019-03-12T01:50:03.622Z,39.60
2019-03-12T01:52:29.785Z,39.60
2019-03-12T01:54:55.945Z,39.60
2019-03-12T01:57:22.097Z,39.60
2019-03-12T01:59:48.249Z,39.60
2019-03-12T02:02:14.397Z,39.60
2019-03-12T02:04:40.552Z,39.60
2019-03-12T02:07:06.710Z,39.70
2019-03-12T02:09:32.861Z,39.60
2019-03-12T02:11:59.013Z,39.60
2019-03-12T02:14:25.185Z,39.60
2019-03-12T02:16:51.343Z,39.60
2019-03-12T02:19:17.537Z,39.60
2019-03-12T02:21:43.688Z,39.60
2019-03-12T02:24:09.839Z,39.60
2019-03-12T02:26:35.984Z,39.60
2019-03-12T02:29:02.141Z,39.70
2019-03-12T02:31:28.302Z,39.70
2019-03-12T02:33:54.451Z,39.50
2019-03-12T02:36:20.606Z,39.50
2019-03-12T02:38:46.761Z,39.50
2019-03-12T02:41:12.914Z,39.40
2019-03-12T02:43:39.085Z,39.30
2019-03-12T02:46:05.389Z,39.30
2019-03-12T02:48:31.543Z,39.90
2019-03-12T02:50:57.718Z,39.30
2019-03-12T02:53:23.868Z,39.40
2019-03-12T02:55:50.019Z,40.00
2019-03-12T02:58:16.174Z,39.30
2019-03-12T03:00:42.327Z,39.30
2019-03-12T03:03:08.476Z,39.30
2019-03-12T03:05:34.647Z,39.20
2019-03-12T03:08:02.020Z,39.20
2019-03-12T03:10:28.185Z,39.20
2019-03-12T03:12:55.113Z,39.10
2019-03-12T03:15:21.431Z,39.10
2019-03-12T03:17:47.756Z,39.10
2019-03-12T03:20:13.900Z,39.20
2019-03-12T03:22:40.049Z,39.20
2019-03-12T03:25:06.216Z,39.20
2019-03-12T03:27:32.376Z,39.10
2019-03-12T03:29:58.533Z,39.20
2019-03-12T03:32:24.694Z,39.20
2019-03-12T03:34:50.843Z,39.20
2019-03-12T03:37:16.993Z,39.20
2019-03-12T03:39:43.149Z,39.10
2019-03-12T03:42:09.315Z,39.20
2019-03-12T03:44:35.468Z,39.20
2019-03-12T03:47:01.720Z,39.00
2019-03-12T03:49:27.818Z,39.00
2019-03-12T03:51:54.774Z,39.10
2019-03-12T03:54:20.926Z,39.10
2019-03-12T03:56:47.075Z,39.20
2019-03-12T03:59:13.233Z,39.00
2019-03-12T04:01:39.386Z,39.10
2019-03-12T04:04:06.297Z,39.20
2019-03-12T04:06:34.288Z,39.10
2019-03-12T04:08:58.641Z,39.10
2019-03-12T04:11:24.797Z,39.10
2019-03-12T04:13:50.953Z,39.00
2019-03-12T04:16:17.877Z,38.90
2019-03-12T04:18:44.025Z,38.90
2019-03-12T04:21:10.174Z,39.00
2019-03-12T04:23:36.338Z,38.90
2019-03-12T04:26:02.504Z,38.90
2019-03-12T04:28:28.649Z,38.80
2019-03-12T04:30:54.801Z,38.80
2019-03-12T04:33:20.974Z,38.90
2019-03-12T04:35:47.145Z,38.90
2019-03-12T04:38:13.298Z,38.80
2019-03-12T04:40:39.683Z,38.90
2019-03-12T04:43:05.847Z,38.80
2019-03-12T04:45:32.001Z,38.70
2019-03-12T04:47:58.183Z,38.70
2019-03-12T04:50:24.345Z,38.60
2019-03-12T04:52:50.500Z,38.60
2019-03-12T04:55:16.648Z,38.50
2019-03-12T04:57:42.804Z,38.50
2019-03-12T05:00:08.958Z,38.50
2019-03-12T05:02:35.113Z,38.50
2019-03-12T05:05:01.264Z,38.50
2019-03-12T05:07:27.412Z,38.60
2019-03-12T05:09:53.553Z,38.50
2019-03-12T05:12:19.706Z,38.60
2019-03-12T05:14:45.864Z,38.60
2019-03-12T05:17:12.011Z,38.60
2019-03-12T05:19:38.165Z,38.50
2019-03-12T05:22:04.316Z,38.50
2019-03-12T05:24:30.468Z,38.50
2019-03-12T05:26:56.619Z,38.60
2019-03-12T05:29:22.805Z,38.50
2019-03-12T05:31:48.964Z,38.60
2019-03-12T05:34:15.105Z,38.60
2019-03-12T05:36:41.253Z,38.60
2019-03-12T05:39:07.393Z,38.60
2019-03-12T05:41:33.544Z,38.50
2019-03-12T05:43:59.699Z,38.60
2019-03-12T05:46:25.847Z,38.70
2019-03-12T05:48:51.999Z,38.60
2019-03-12T05:51:18.148Z,38.50
2019-03-12T05:53:44.301Z,38.60
2019-03-12T05:56:10.454Z,38.70
2019-03-12T05:58:36.603Z,38.70
2019-03-12T06:01:02.752Z,38.70
2019-03-12T06:03:28.922Z,38.70
2019-03-12T06:05:55.079Z,38.90
2019-03-12T06:08:21.244Z,38.80
2019-03-12T06:10:47.389Z,38.80
2019-03-12T06:13:13.538Z,38.60
2019-03-12T06:15:39.719Z,38.70
2019-03-12T06:18:05.864Z,38.80
2019-03-12T06:20:32.025Z,38.80
2019-03-12T06:22:58.280Z,39.00
2019-03-12T06:25:24.382Z,38.90
2019-03-12T06:27:50.540Z,39.00
2019-03-12T06:30:16.727Z,39.00
2019-03-12T06:32:42.873Z,38.80
2019-03-12T06:35:09.035Z,38.90
2019-03-12T06:37:35.193Z,38.90
2019-03-12T06:40:01.339Z,38.90
2019-03-12T06:42:27.494Z,38.80
2019-03-12T06:44:53.645Z,38.80
2019-03-12T06:47:19.792Z,39.00
2019-03-12T06:49:45.950Z,39.00
2019-03-12T06:52:12.104Z,38.90
2019-03-12T06:54:39.025Z,39.00
2019-03-12T06:57:05.180Z,38.90
2019-03-12T06:59:31.332Z,39.00
2019-03-12T07:01:57.484Z,39.00
2019-03-12T07:04:23.641Z,39.00
2019-03-12T07:06:49.790Z,39.00
2019-03-12T07:09:15.948Z,39.00
2019-03-12T07:11:42.100Z,39.10
2019-03-12T07:14:08.250Z,39.10
2019-03-12T07:16:34.406Z,39.10
2019-03-12T07:19:00.552Z,39.20
2019-03-12T07:21:26.707Z,39.20
2019-03-12T07:23:52.848Z,39.20
2019-03-12T07:26:19.002Z,39.30
2019-03-12T07:28:50.139Z,39.20
2019-03-12T07:31:11.455Z,39.10
2019-03-12T07:33:37.549Z,39.20
2019-03-12T07:36:03.701Z,39.10
2019-03-12T07:38:33.940Z,39.10
2019-03-12T07:41:00.107Z,39.20
2019-03-12T07:43:26.261Z,39.10
2019-03-12T07:45:52.443Z,39.10
2019-03-12T07:48:18.584Z,39.20
2019-03-12T07:50:44.737Z,39.10
2019-03-12T07:53:10.884Z,39.20
2019-03-12T07:55:37.043Z,39.20
2019-03-12T07:58:03.233Z,39.10
2019-03-12T08:00:29.400Z,39.10
2019-03-12T08:02:55.554Z,39.00
2019-03-12T08:05:21.710Z,39.10
2019-03-12T08:07:47.852Z,39.20
2019-03-12T08:10:14.009Z,39.20
2019-03-12T08:12:40.165Z,39.20
2019-03-12T08:15:06.333Z,39.20
2019-03-12T08:17:32.485Z,39.20
2019-03-12T08:19:59.375Z,39.30
2019-03-12T08:22:25.530Z,39.30
2019-03-12T08:24:51.716Z,39.30
2019-03-12T08:27:17.869Z,39.30
2019-03-12T08:29:44.796Z,39.30
2019-03-12T08:32:10.945Z,39.20
2019-03-12T08:34:37.885Z,39.30
2019-03-12T08:37:04.208Z,39.20
2019-03-12T08:39:30.389Z,39.20
2019-03-12T08:41:56.546Z,39.30
2019-03-12T08:44:22.797Z,39.30
2019-03-12T08:46:48.908Z,39.40
2019-03-12T08:49:15.068Z,39.30
2019-03-12T08:51:41.237Z,39.40
2019-03-12T08:54:07.386Z,39.30
2019-03-12T08:56:33.560Z,39.20
2019-03-12T08:59:00.474Z,39.40
2019-03-12T09:01:26.698Z,39.40
2019-03-12T09:03:52.860Z,39.30
2019-03-12T09:06:19.015Z,39.30
2019-03-12T09:08:45.175Z,39.30
2019-03-12T09:11:11.537Z,39.30
2019-03-12T09:13:37.703Z,39.30
2019-03-12T09:16:03.882Z,39.30
2019-03-12T09:18:30.165Z,39.30
2019-03-12T09:20:56.334Z,39.30
2019-03-12T09:23:22.476Z,39.30
2019-03-12T09:25:49.396Z,39.30
2019-03-12T09:28:15.565Z,39.30
2019-03-12T09:30:41.774Z,39.40
2019-03-12T09:33:07.922Z,39.50
2019-03-12T09:35:34.083Z,39.30
2019-03-12T09:38:00.237Z,39.40
2019-03-12T09:40:26.387Z,39.40
2019-03-12T09:42:52.540Z,39.50
2019-03-12T09:45:18.691Z,39.60
2019-03-12T09:47:44.863Z,39.60
2019-03-12T09:50:11.022Z,39.50
2019-03-12T09:52:37.194Z,39.30
2019-03-12T09:55:04.911Z,39.40
2019-03-12T09:57:34.392Z,39.40
2019-03-12T10:00:00.547Z,39.50
2019-03-12T10:02:26.704Z,39.50
2019-03-12T10:04:52.850Z,39.50
2019-03-12T10:07:19.795Z,39.40
2019-03-12T10:09:45.942Z,39.40
2019-03-12T10:12:12.093Z,39.40
2019-03-12T10:14:38.246Z,39.30
2019-03-12T10:17:04.400Z,39.30
2019-03-12T10:19:31.330Z,39.40
2019-03-12T10:21:57.491Z,39.40
2019-03-12T10:24:23.661Z,39.40
2019-03-12T10:26:49.816Z,40.10
2019-03-12T10:29:15.984Z,39.30
2019-03-12T10:31:42.140Z,39.20
2019-03-12T10:34:08.295Z,39.30
2019-03-12T10:36:34.450Z,39.30
2019-03-12T10:39:00.626Z,39.30
2019-03-12T10:41:26.783Z,39.30
2019-03-12T10:43:55.388Z,39.30
2019-03-12T10:46:19.156Z,39.20
2019-03-12T10:48:45.333Z,39.30
2019-03-12T10:51:13.069Z,39.30
2019-03-12T10:53:37.670Z,39.20
2019-03-12T10:56:03.830Z,39.20
2019-03-12T10:58:29.980Z,39.10
2019-03-12T11:00:56.133Z,39.10
2019-03-12T11:03:22.298Z,39.00
2019-03-12T11:05:49.216Z,38.80
2019-03-12T11:08:15.368Z,38.70
2019-03-12T11:10:41.512Z,38.80
2019-03-12T11:13:07.663Z,38.70
2019-03-12T11:15:33.817Z,38.60
2019-03-12T11:17:59.977Z,38.70
2019-03-12T11:20:26.135Z,38.70
2019-03-12T11:22:52.293Z,38.50
2019-03-12T11:25:27.187Z,38.60
2019-03-12T11:27:44.645Z,38.60
2019-03-12T11:30:10.809Z,38.40
2019-03-12T11:32:36.966Z,38.60
2019-03-12T11:35:03.115Z,38.60
2019-03-12T11:37:29.269Z,38.70
2019-03-12T11:39:55.432Z,38.70
2019-03-12T11:42:21.584Z,38.50
2019-03-12T11:44:47.909Z,38.50
2019-03-12T11:47:14.084Z,38.50
2019-03-12T11:49:40.238Z,38.40
2019-03-12T11:52:06.422Z,38.30
2019-03-12T11:54:33.344Z,38.20
2019-03-12T11:56:59.517Z,38.10
2019-03-12T11:59:26.993Z,38.00
2019-03-12T12:01:53.163Z,38.00
2019-03-12T12:04:19.312Z,38.00
2019-03-12T12:06:45.480Z,38.00
2019-03-12T12:09:11.732Z,38.00
2019-03-12T12:11:38.065Z,37.90
2019-03-12T12:14:04.217Z,37.90
2019-03-12T12:16:30.392Z,37.90
2019-03-12T12:18:56.545Z,37.90
2019-03-12T12:21:22.715Z,37.70
2019-03-12T12:23:48.870Z,37.80
2019-03-12T12:26:15.052Z,37.80
2019-03-12T12:28:41.207Z,38.00
2019-03-12T12:31:07.358Z,37.70
2019-03-12T12:33:33.507Z,37.70
2019-03-12T12:36:00.431Z,37.50
2019-03-12T12:38:26.580Z,37.50
2019-03-12T12:40:52.745Z,37.30
2019-03-12T12:43:18.891Z,37.30
2019-03-12T12:45:45.043Z,37.20
2019-03-12T12:48:11.194Z,37.30
2019-03-12T12:50:37.340Z,37.50
2019-03-12T12:53:03.507Z,37.10
2019-03-12T12:55:29.661Z,37.30
2019-03-12T12:57:55.816Z,37.30
2019-03-12T13:00:21.970Z,37.40
2019-03-12T13:02:49.034Z,37.20
2019-03-12T13:05:15.179Z,37.90
2019-03-12T13:07:41.342Z,37.00
2019-03-12T13:10:07.484Z,36.90
2019-03-12T13:12:33.632Z,36.90
2019-03-12T13:14:59.785Z,37.00
2019-03-12T13:17:26.716Z,36.80
2019-03-12T13:19:52.918Z,36.80
2019-03-12T13:22:19.056Z,36.90
2019-03-12T13:24:45.205Z,37.00
2019-03-12T13:27:11.376Z,36.90
2019-03-12T13:29:37.527Z,36.90
2019-03-12T13:32:12.996Z,37.00
2019-03-12T13:34:29.897Z,37.10
2019-03-12T13:36:56.058Z,37.10
2019-03-12T13:39:22.268Z,37.10
2019-03-12T13:41:48.436Z,37.10
2019-03-12T13:44:14.612Z,37.00
2019-03-12T13:46:40.816Z,36.90
2019-03-12T13:49:07.556Z,36.90
2019-03-12T13:51:33.361Z,36.90
2019-03-12T13:53:59.527Z,37.00
2019-03-12T13:56:26.004Z,37.00
2019-03-12T13:58:51.891Z,36.70
2019-03-12T14:01:18.045Z,36.90
2019-03-12T14:03:44.213Z,36.70
2019-03-12T14:06:10.357Z,36.90
2019-03-12T14:08:36.525Z,36.70
2019-03-12T14:11:02.677Z,36.80
2019-03-12T14:13:28.857Z,36.90
2019-03-12T14:15:55.003Z,36.80
2019-03-12T14:18:21.168Z,37.40
2019-03-12T14:20:47.324Z,36.80
2019-03-12T14:23:13.511Z,36.80
2019-03-12T14:25:39.808Z,36.90
2019-03-12T14:28:05.966Z,36.80
2019-03-12T14:30:32.113Z,36.50
2019-03-12T14:32:58.269Z,36.70
2019-03-12T14:35:24.421Z,36.70
2019-03-12T14:37:50.577Z,36.80
2019-03-12T14:40:16.725Z,36.80
2019-03-12T14:42:42.883Z,36.90
2019-03-12T14:45:09.044Z,36.60
2019-03-12T14:47:35.200Z,36.80
2019-03-12T14:50:01.358Z,36.90
2019-03-12T14:52:27.505Z,36.80
2019-03-12T14:54:53.683Z,36.90
2019-03-12T14:57:19.833Z,36.90
2019-03-12T14:59:46.005Z,36.80
2019-03-12T15:02:12.158Z,37.00
2019-03-12T15:04:38.341Z,36.80
2019-03-12T15:07:04.490Z,36.70
2019-03-12T15:09:30.646Z,36.90
2019-03-12T15:11:56.811Z,36.80
2019-03-12T15:14:23.025Z,36.90
2019-03-12T15:16:49.149Z,36.90
2019-03-12T15:19:15.299Z,36.90
2019-03-12T15:21:42.218Z,36.90
2019-03-12T15:24:08.374Z,36.90
2019-03-12T15:26:34.536Z,36.90
2019-03-12T15:29:00.688Z,36.90
2019-03-12T15:31:26.851Z,36.80
2019-03-12T15:33:53.764Z,36.90
2019-03-12T15:36:19.934Z,36.90
2019-03-12T15:38:46.080Z,36.80
2019-03-12T15:41:12.253Z,36.70
2019-03-12T15:43:38.409Z,36.80
2019-03-12T15:46:05.340Z,36.70
2019-03-12T15:48:31.484Z,36.70
2019-03-12T15:50:57.652Z,36.80
2019-03-12T15:53:23.810Z,36.80
2019-03-12T15:55:49.960Z,36.70
2019-03-12T15:58:16.112Z,37.50
2019-03-12T16:00:42.266Z,36.50
2019-03-12T16:03:10.484Z,36.80
2019-03-12T16:05:36.639Z,36.50
2019-03-12T16:08:02.795Z,36.50
2019-03-12T16:10:29.669Z,36.60
2019-03-12T16:12:55.813Z,36.50
2019-03-12T16:15:21.969Z,36.70
2019-03-12T16:17:48.118Z,36.80
2019-03-12T16:20:14.264Z,36.70
2019-03-12T16:22:41.200Z,36.60
2019-03-12T16:25:07.345Z,36.60
2019-03-12T16:27:33.508Z,36.60
2019-03-12T16:29:59.664Z,36.50
2019-03-12T16:32:25.839Z,36.50
2019-03-12T16:34:52.005Z,36.40
2019-03-12T16:37:18.177Z,36.50
2019-03-12T16:39:44.320Z,36.40
2019-03-12T16:42:10.471Z,36.40
2019-03-12T16:44:36.626Z,36.30
2019-03-12T16:47:02.776Z,36.20
2019-03-12T16:49:28.922Z,36.30
2019-03-12T16:51:55.071Z,36.30
2019-03-12T16:54:21.257Z,36.30
2019-03-12T16:56:47.410Z,36.40
2019-03-12T16:59:13.581Z,36.50
2019-03-12T17:01:39.737Z,36.40
2019-03-12T17:04:05.904Z,36.40
2019-03-12T17:06:32.059Z,36.40
2019-03-12T17:08:58.225Z,36.20
2019-03-12T17:11:24.443Z,36.30
2019-03-12T17:13:50.699Z,36.40
2019-03-12T17:16:16.853Z,36.20
2019-03-12T17:18:43.019Z,36.30
2019-03-12T17:21:09.165Z,36.00
2019-03-12T17:23:35.346Z,36.10
2019-03-12T17:26:02.301Z,36.00
2019-03-12T17:28:28.481Z,36.00
2019-03-12T17:30:54.653Z,36.60
2019-03-12T17:33:21.578Z,36.20
2019-03-12T17:35:47.725Z,36.20
2019-03-12T17:38:13.870Z,35.90
2019-03-12T17:40:40.013Z,35.90
2019-03-12T17:43:06.166Z,35.90
2019-03-12T17:45:32.322Z,35.60
2019-03-12T17:47:58.471Z,35.60
2019-03-12T17:50:25.547Z,35.70
2019-03-12T17:52:51.680Z,35.70
2019-03-12T17:55:17.844Z,36.00
2019-03-12T17:57:44.009Z,35.90
2019-03-12T18:00:10.190Z,35.70
2019-03-12T18:02:42.455Z,35.80
2019-03-12T18:05:02.555Z,35.70
2019-03-12T18:07:28.732Z,35.30
2019-03-12T18:09:54.902Z,35.10
2019-03-12T18:12:21.058Z,35.10
2019-03-12T18:14:47.221Z,35.30
2019-03-12T18:17:13.385Z,34.70
2019-03-12T18:19:39.537Z,34.70
2019-03-12T18:22:05.698Z,35.00
2019-03-12T18:24:31.849Z,35.00
2019-03-12T18:26:58.014Z,34.80
2019-03-12T18:29:24.163Z,34.80
2019-03-12T18:31:50.321Z,35.00
2019-03-12T18:34:16.486Z,34.80
2019-03-12T18:36:42.636Z,34.60
2019-03-12T18:39:08.788Z,34.20
2019-03-12T18:41:34.941Z,34.00
2019-03-12T18:44:01.088Z,34.10
2019-03-12T18:46:27.238Z,34.30
2019-03-12T18:48:53.389Z,34.20
2019-03-12T18:51:19.551Z,34.20
2019-03-12T18:53:46.475Z,34.20
2019-03-12T18:56:12.628Z,34.20
2019-03-12T18:58:38.785Z,34.10
2019-03-12T19:01:04.948Z,34.20
2019-03-12T19:03:31.097Z,34.00
2019-03-12T19:05:58.037Z,34.10
2019-03-12T19:08:24.185Z,34.10
2019-03-12T19:10:50.412Z,34.10
2019-03-12T19:13:16.566Z,34.20
2019-03-12T19:15:42.720Z,34.20
2019-03-12T19:18:08.871Z,34.10
2019-03-12T19:20:35.790Z,33.70
2019-03-12T19:23:01.941Z,33.70
2019-03-12T19:25:28.088Z,34.00
2019-03-12T19:27:59.894Z,33.90
2019-03-12T19:30:20.420Z,33.90
2019-03-12T19:32:46.597Z,34.00
2019-03-12T19:35:12.735Z,33.90
2019-03-12T19:37:38.901Z,33.50
2019-03-12T19:40:05.051Z,33.70
2019-03-12T19:42:31.213Z,33.30
2019-03-12T19:44:57.372Z,32.90
2019-03-12T19:47:23.540Z,33.10
2019-03-12T19:49:49.689Z,33.30
2019-03-12T19:52:15.857Z,33.40
2019-03-12T19:54:42.009Z,33.20
2019-03-12T19:57:08.181Z,33.40
2019-03-12T19:59:34.339Z,33.50
2019-03-12T20:02:00.503Z,33.50
2019-03-12T20:04:26.670Z,33.40
2019-03-12T20:06:53.750Z,33.50
2019-03-12T20:09:19.929Z,33.80
2019-03-12T20:11:46.086Z,33.70
2019-03-12T20:14:12.242Z,33.90
2019-03-12T20:16:38.388Z,33.90
2019-03-12T20:19:04.547Z,34.10
2019-03-12T20:21:30.703Z,34.10
2019-03-12T20:23:56.874Z,34.30
2019-03-12T20:26:23.024Z,34.40
2019-03-12T20:28:49.195Z,34.30
2019-03-12T20:31:15.353Z,34.50
2019-03-12T20:33:41.524Z,34.60
2019-03-12T20:36:07.672Z,34.60
2019-03-12T20:38:33.844Z,34.70
2019-03-12T20:40:59.989Z,34.80
2019-03-12T20:43:26.165Z,34.90
2019-03-12T20:45:52.405Z,35.00
2019-03-12T20:48:18.516Z,35.10
2019-03-12T20:50:44.664Z,35.10
2019-03-12T20:53:12.475Z,35.10
2019-03-12T20:55:38.624Z,35.30
2019-03-12T20:58:04.777Z,35.30
2019-03-12T21:00:30.930Z,35.30
2019-03-12T21:02:57.085Z,35.30
2019-03-12T21:05:23.232Z,35.30
2019-03-12T21:07:49.373Z,35.30
2019-03-12T21:10:15.531Z,35.50
2019-03-12T21:12:41.688Z,35.60
2019-03-12T21:15:07.839Z,35.50
2019-03-12T21:17:34.000Z,35.60
2019-03-12T21:20:00.404Z,35.70
2019-03-12T21:22:26.381Z,35.70
2019-03-12T21:24:52.545Z,35.80
2019-03-12T21:27:18.699Z,35.90
2019-03-12T21:29:44.858Z,36.00
2019-03-12T21:32:11.006Z,36.20
2019-03-12T21:34:37.154Z,36.30
2019-03-12T21:37:04.073Z,37.10
2019-03-12T21:39:30.233Z,37.10
2019-03-12T21:41:56.382Z,37.40
2019-03-12T21:44:22.607Z,37.30
2019-03-12T21:46:48.721Z,37.70
2019-03-12T21:49:14.865Z,37.90
2019-03-12T21:51:41.026Z,37.90
2019-03-12T21:54:07.172Z,38.40
2019-03-12T21:56:33.328Z,38.50
2019-03-12T21:58:59.483Z,38.60
2019-03-12T22:01:25.628Z,38.80
2019-03-12T22:03:51.778Z,38.80
2019-03-12T22:06:17.937Z,38.60
2019-03-12T22:08:44.084Z,38.80
2019-03-12T22:11:10.252Z,39.10
2019-03-12T22:13:36.438Z,39.10
2019-03-12T22:16:02.606Z,39.20
2019-03-12T22:18:29.517Z,39.30
2019-03-12T22:20:55.703Z,39.30
2019-03-12T22:23:21.873Z,39.30
2019-03-12T22:25:48.019Z,39.60
2019-03-12T22:28:14.165Z,39.60
2019-03-12T22:30:40.324Z,39.70
2019-03-12T22:33:06.481Z,40.40
2019-03-12T22:35:32.633Z,39.70
2019-03-12T22:37:58.788Z,39.60
2019-03-12T22:40:24.933Z,39.70
2019-03-12T22:42:51.170Z,39.70
2019-03-12T22:45:17.286Z,40.00
2019-03-12T22:47:43.433Z,39.80
2019-03-12T22:50:09.592Z,39.70
2019-03-12T22:52:35.748Z,39.50
2019-03-12T22:55:03.854Z,39.80
2019-03-12T22:57:28.088Z,39.80
2019-03-12T22:59:54.252Z,40.50
2019-03-12T23:02:20.396Z,39.80
2019-03-12T23:04:46.546Z,39.90
2019-03-12T23:07:12.716Z,40.00
2019-03-12T23:09:38.869Z,39.90
2019-03-12T23:12:05.069Z,40.00
2019-03-12T23:14:31.228Z,40.00
2019-03-12T23:16:58.149Z,40.00
2019-03-12T23:19:24.297Z,40.00
2019-03-12T23:21:50.443Z,40.10
2019-03-12T23:24:16.590Z,40.00
2019-03-12T23:26:42.855Z,39.90
2019-03-12T23:29:09.697Z,40.00
2019-03-12T23:31:35.849Z,40.60
2019-03-12T23:34:02.007Z,39.90
2019-03-12T23:36:28.180Z,40.00
2019-03-12T23:38:54.333Z,39.90
2019-03-12T23:41:20.490Z,40.00
2019-03-12T23:43:46.653Z,40.00
2019-03-12T23:46:13.244Z,40.00
2019-03-12T23:48:39.408Z,40.60
2019-03-12T23:51:05.552Z,39.90
2019-03-12T23:53:31.720Z,39.90
2019-03-12T23:55:58.844Z,39.80
2019-03-12T23:58:24.959Z,39.90
